CST,Max TemperatureF,Mean TemperatureF,Min TemperatureF,Max Dew PointF,MeanDew PointF,Min DewpointF,Max Humidity, Mean Humidity, Min Humidity, Max Sea Level PressureIn, Mean Sea Level PressureIn, Min Sea Level PressureIn, Max VisibilityMiles, Mean VisibilityMiles, Min VisibilityMiles, Max Wind SpeedMPH, Mean Wind SpeedMPH, Max Gust SpeedMPH,PrecipitationIn, CloudCover, Events, WindDirDegrees
2013-1-1,52,46,39,52,47,38,100,97,83,30.13,30.05,29.99,10,5,2,15,5,17,1.38,8,,10
2013-1-2,39,36,33,38,32,30,97,88,81,30.24,30.18,30.11,9,7,5,13,8,,0.00,8,,358
2013-1-3,44,36,28,29,27,23,89,75,49,30.42,30.33,30.23,10,8,4,8,5,,0.00,2,,347
2013-1-4,46,36,26,27,24,22,92,69,37,30.49,30.43,30.39,10,10,10,8,3,,0.00,0,,25
2013-1-5,46,36,25,38,31,23,96,79,46,30.45,30.35,30.29,10,9,3,8,1,,0.04,5,,205
2013-1-6,48,41,34,39,36,29,100,86,63,30.36,30.27,30.22,10,9,5,10,5,,0.01,5,,273
2013-1-7,50,39,28,31,28,24,89,75,46,30.43,30.35,30.29,10,9,6,8,4,,0.00,0,,49
2013-1-8,59,46,32,43,38,28,85,70,55,30.35,30.28,30.25,10,10,10,12,5,,0.00,1,,122
2013-1-9,57,52,48,56,52,44,100,94,77,30.39,30.35,30.29,10,4,2,9,4,,0.66,8,,88
2013-1-10,66,62,57,61,59,54,94,90,83,30.35,30.21,30.04,10,8,5,21,9,30,0.04,7,,125
2013-1-11,68,65,62,64,62,60,100,93,81,30.12,30.07,30.02,10,9,3,20,12,30,0.12,8,,174
2013-1-12,71,68,64,66,64,59,100,89,76,30.08,30.02,29.92,10,9,2,15,9,23,0.06,7,,170
2013-1-13,70,56,41,65,57,36,100,90,77,30.17,29.99,29.87,10,8,1,22,11,33,0.32,8,Thunderstorm,191
2013-1-14,39,36,33,36,33,30,93,89,83,30.30,30.23,30.17,10,6,2,16,11,23,1.11,8,,12
2013-1-15,39,37,35,37,35,33,100,94,92,30.19,30.07,29.97,10,4,2,15,8,,1.74,8,,15
2013-1-16,39,37,35,36,35,34,100,93,87,30.11,30.07,30.00,10,8,4,10,6,,0.27,8,,355
2013-1-17,42,38,35,36,31,27,93,80,70,30.43,30.12,29.97,10,8,2,25,12,34,0.19,6,,347
2013-1-18,50,39,28,34,30,26,92,78,44,30.61,30.49,30.43,10,9,5,9,5,,0.00,0,,357
2013-1-19,55,40,26,35,30,24,96,69,40,30.43,30.33,30.23,10,10,9,14,3,,0.01,0,,172
2013-1-20,55,42,30,38,34,28,96,76,47,30.27,30.21,30.16,10,10,10,6,1,,0.00,0,,317
2013-1-21,46,37,28,29,21,17,96,58,31,30.30,30.24,30.15,10,10,10,14,7,20,0.00,0,,343
2013-1-22,37,30,24,19,16,13,75,53,41,30.44,30.37,30.30,10,10,10,8,5,,0.00,2,,348
2013-1-23,55,44,34,36,28,20,68,55,41,30.40,30.30,30.21,10,10,10,9,2,,0.00,6,,220
2013-1-24,45,40,35,39,24,16,86,54,34,30.42,30.33,30.22,10,10,10,16,6,24,0.00,3,,27
2013-1-25,50,44,39,48,38,18,100,79,43,30.27,30.16,30.10,10,7,1,17,7,25,0.16,8,,120
2013-1-26,53,43,33,36,32,30,93,75,43,30.35,30.31,30.25,10,8,4,10,5,,0.00,3,,18
2013-1-27,51,46,41,40,36,31,76,67,57,30.38,30.32,30.29,10,10,10,14,5,,0.00,6,,122
2013-1-28,64,55,46,53,47,37,90,74,64,30.33,30.26,30.18,10,9,7,15,10,,0.00,4,,150
2013-1-29,69,60,52,63,59,50,96,88,78,30.18,29.99,29.72,10,7,2,24,9,34,0.00,7,,149
2013-1-30,71,55,37,63,50,25,100,83,58,29.97,29.68,29.57,10,7,2,31,18,43,1.08,8,Rain-Thunderstorm,248
2013-1-31,48,40,32,27,25,23,80,59,36,30.20,30.11,29.99,10,10,10,21,14,31,0.00,3,,260